Time;durP1;ratioP1;P1;durP2;ratioP2;P2;SDS_P1;SDS_P2;PMS_P1;PMS_P2;Temp;Humidity;BMP_temperature;BMP_pressure;BME280_temperature;BME280_humidity;BME280_pressure;Samples;Min_cycle;Max_cycle;Signal;HPM_P1;HPM_P2
2022/03/15 00:00:24;;;;;;;40.80;25.55;;;8.70;99.90;;;;;;5032854;28;20045;-72
2022/03/15 00:02:50;;;;;;;47.95;28.95;;;8.70;99.90;;;;;;5032924;28;20106;-73
2022/03/15 00:05:19;;;;;;;55.38;30.45;;;8.60;99.90;;;;;;5033058;28;20153;-72
2022/03/15 00:07:46;;;;;;;47.20;29.08;;;8.60;99.90;;;;;;5033136;28;20025;-72
2022/03/15 00:10:12;;;;;;;42.67;27.42;;;8.60;99.90;;;;;;5032580;28;20050;-70
2022/03/15 00:12:43;;;;;;;39.72;25.50;;;8.60;99.90;;;;;;5021986;28;20484;-71
2022/03/15 00:15:10;;;;;;;40.67;25.58;;;8.60;99.90;;;;;;5035886;28;20060;-72
2022/03/15 00:17:36;;;;;;;41.85;24.58;;;8.60;99.90;;;;;;5032827;28;20041;-71
2022/03/15 00:20:07;;;;;;;44.70;27.65;;;8.60;99.90;;;;;;5033037;28;20079;-70
2022/03/15 00:22:38;;;;;;;46.45;29.60;;;8.60;99.90;;;;;;5032861;28;20037;-71
2022/03/15 00:25:06;;;;;;;43.92;29.30;;;8.60;99.90;;;;;;5032838;28;20128;-71
2022/03/15 00:27:32;;;;;;;42.90;27.38;;;8.60;99.90;;;;;;5032803;28;20759;-71
2022/03/15 00:29:59;;;;;;;43.28;27.70;;;8.60;99.90;;;;;;5032575;28;20120;-71
2022/03/15 00:32:25;;;;;;;46.25;28.60;;;8.60;99.90;;;;;;5032611;28;20045;-71
2022/03/15 00:34:51;;;;;;;44.50;28.52;;;8.60;99.90;;;;;;5032693;28;20386;-71
2022/03/15 00:37:18;;;;;;;63.67;37.60;;;8.60;99.90;;;;;;5032929;28;20528;-70
2022/03/15 00:39:44;;;;;;;50.95;32.58;;;8.60;99.90;;;;;;5032733;28;20041;-72
2022/03/15 00:42:11;;;;;;;48.25;29.65;;;8.60;99.90;;;;;;5032737;28;20033;-71
2022/03/15 00:44:37;;;;;;;49.13;30.48;;;8.60;99.90;;;;;;5032825;28;20041;-71
2022/03/15 00:47:03;;;;;;;49.22;29.67;;;8.50;99.90;;;;;;5032779;28;20510;-71
2022/03/15 00:49:28;;;;;;;46.83;29.05;;;8.50;99.90;;;;;;5047557;28;20419;-71
2022/03/15 00:51:54;;;;;;;42.83;26.83;;;8.50;99.90;;;;;;5056207;28;20392;-71
2022/03/15 00:54:21;;;;;;;45.05;27.58;;;8.60;99.90;;;;;;5056179;28;20087;-71
2022/03/15 00:56:47;;;;;;;48.65;28.83;;;8.60;99.90;;;;;;5055960;28;20029;-71
2022/03/15 00:59:15;;;;;;;43.55;27.92;;;8.60;99.90;;;;;;5038146;28;20044;-70
2022/03/15 01:01:41;;;;;;;42.88;27.75;;;8.60;99.90;;;;;;5055888;28;20037;-71
2022/03/15 01:04:08;;;;;;;42.67;27.52;;;8.60;99.90;;;;;;5056034;28;20086;-71
2022/03/15 01:06:38;;;;;;;45.53;28.27;;;8.60;99.90;;;;;;5055990;28;20051;-70
2022/03/15 01:09:05;;;;;;;44.55;26.85;;;8.60;99.90;;;;;;5056108;28;20053;-70
2022/03/15 01:11:31;;;;;;;48.97;30.58;;;8.60;99.90;;;;;;5056360;28;20033;-71
2022/03/15 01:13:56;;;;;;;46.97;29.63;;;8.60;99.90;;;;;;5055950;28;20072;-71
2022/03/15 01:16:22;;;;;;;44.80;28.70;;;8.60;99.90;;;;;;5055986;28;20132;-70
2022/03/15 01:18:48;;;;;;;49.67;30.77;;;8.60;99.90;;;;;;5055971;28;20044;-71
2022/03/15 01:21:14;;;;;;;48.20;30.02;;;8.60;99.90;;;;;;5056076;28;20095;-70
2022/03/15 01:23:41;;;;;;;45.67;28.55;;;8.60;99.90;;;;;;5055736;28;20075;-71
2022/03/15 01:26:07;;;;;;;46.28;28.13;;;8.50;99.90;;;;;;5056064;28;20064;-71
2022/03/15 01:28:33;;;;;;;46.08;28.17;;;8.50;99.90;;;;;;5055617;28;20161;-70
2022/03/15 01:30:59;;;;;;;44.00;28.35;;;8.50;99.90;;;;;;5055704;28;20048;-72
2022/03/15 01:33:25;;;;;;;37.40;24.77;;;8.50;99.90;;;;;;5055659;28;20041;-70
2022/03/15 01:35:51;;;;;;;34.35;21.00;;;8.50;99.90;;;;;;5055629;28;20057;-71
2022/03/15 01:38:17;;;;;;;37.25;24.40;;;8.60;99.90;;;;;;5055391;28;20037;-71
2022/03/15 01:40:43;;;;;;;38.88;25.83;;;8.60;99.90;;;;;;5055272;28;20083;-70
2022/03/15 01:43:09;;;;;;;38.05;23.63;;;8.50;99.90;;;;;;5055285;28;20040;-72
2022/03/15 01:45:39;;;;;;;35.70;24.30;;;8.60;99.90;;;;;;5055483;28;20055;-70
2022/03/15 01:48:07;;;;;;;34.05;22.75;;;8.50;99.90;;;;;;5037360;28;20053;-70
2022/03/15 01:50:34;;;;;;;31.52;21.42;;;8.50;99.90;;;;;;5055466;28;20041;-71
2022/03/15 01:53:00;;;;;;;27.52;20.40;;;8.60;99.90;;;;;;5053938;28;20481;-72
2022/03/15 01:55:26;;;;;;;31.33;21.77;;;8.60;99.90;;;;;;5037172;28;20509;-72
2022/03/15 01:57:52;;;;;;;32.10;22.60;;;8.60;99.90;;;;;;5035153;28;20090;-73
2022/03/15 02:00:19;;;;;;;38.05;23.20;;;8.60;99.90;;;;;;5034289;28;20037;-71
2022/03/15 02:02:45;;;;;;;37.42;23.20;;;8.60;99.90;;;;;;5034969;28;20037;-72
2022/03/15 02:05:11;;;;;;;42.72;25.10;;;8.50;99.90;;;;;;5035345;28;20033;-72
2022/03/15 02:07:38;;;;;;;45.95;24.70;;;8.50;99.90;;;;;;5034933;28;20527;-72
2022/03/15 02:10:06;;;;;;;42.25;24.70;;;8.50;99.90;;;;;;5035018;28;20032;-71
2022/03/15 02:12:37;;;;;;;47.97;26.05;;;8.50;99.90;;;;;;5035063;28;20026;-72
2022/03/15 02:15:06;;;;;;;41.35;24.98;;;8.50;99.90;;;;;;5038988;28;20053;-72
2022/03/15 02:17:32;;;;;;;50.65;30.25;;;8.50;99.90;;;;;;5055211;28;20496;-72
2022/03/15 02:19:58;;;;;;;53.25;31.95;;;8.50;99.90;;;;;;5054743;28;20053;-70
2022/03/15 02:22:25;;;;;;;40.33;25.77;;;8.50;99.90;;;;;;5054626;28;20520;-73
2022/03/15 02:24:51;;;;;;;40.95;25.65;;;8.50;99.90;;;;;;5054668;28;20156;-73
2022/03/15 02:27:20;;;;;;;37.53;24.98;;;8.40;99.90;;;;;;5054988;28;20029;-73
2022/03/15 02:29:46;;;;;;;40.20;26.13;;;8.40;99.90;;;;;;5054721;28;20045;-73
2022/03/15 02:32:11;;;;;;;38.72;26.65;;;8.40;99.90;;;;;;5054624;28;20128;-71
2022/03/15 02:34:37;;;;;;;37.92;25.73;;;8.40;99.90;;;;;;5054077;28;20399;-71
2022/03/15 02:37:03;;;;;;;34.08;24.88;;;8.40;99.90;;;;;;5054276;28;20076;-72
2022/03/15 02:39:29;;;;;;;42.65;27.95;;;8.40;99.90;;;;;;5054138;28;20064;-72
2022/03/15 02:41:55;;;;;;;46.40;28.42;;;8.40;99.90;;;;;;5054111;28;20115;-72
2022/03/15 02:44:23;;;;;;;41.17;26.73;;;8.40;99.90;;;;;;5054420;28;20037;-72
2022/03/15 02:46:52;;;;;;;40.97;27.98;;;8.40;99.90;;;;;;5054158;28;20037;-72
2022/03/15 02:49:18;;;;;;;38.85;27.23;;;8.40;99.90;;;;;;5054290;28;20048;-70
2022/03/15 02:51:44;;;;;;;48.08;30.67;;;8.40;99.90;;;;;;5054243;28;20037;-73
2022/03/15 02:54:11;;;;;;;40.42;27.65;;;8.40;99.90;;;;;;5054078;28;20484;-72
2022/03/15 02:56:46;;;;;;;49.10;30.90;;;8.40;99.90;;;;;;5054031;28;20577;-72
2022/03/15 02:59:17;;;;;;;41.60;29.13;;;8.40;99.90;;;;;;5041863;28;20064;-70
2022/03/15 03:01:47;;;;;;;44.47;29.30;;;8.40;99.90;;;;;;5047562;28;20072;-72
2022/03/15 03:04:15;;;;;;;48.78;31.67;;;8.40;99.90;;;;;;5054009;28;20033;-72
2022/03/15 03:06:42;;;;;;;53.00;33.55;;;8.40;99.90;;;;;;5052562;28;20040;-72
2022/03/15 03:09:10;;;;;;;44.30;28.77;;;8.40;99.90;;;;;;5053900;28;20458;-70
2022/03/15 03:11:36;;;;;;;44.80;31.58;;;8.40;99.90;;;;;;5053656;28;20468;-72
2022/03/15 03:14:04;;;;;;;48.25;33.53;;;8.40;99.90;;;;;;5053501;28;20155;-70
2022/03/15 03:16:30;;;;;;;49.97;33.95;;;8.40;99.90;;;;;;5053492;28;20515;-71
2022/03/15 03:18:58;;;;;;;48.50;31.98;;;8.40;99.90;;;;;;5053727;28;20033;-72
2022/03/15 03:21:28;;;;;;;48.47;30.80;;;8.40;99.90;;;;;;5053784;28;20407;-72
2022/03/15 03:23:55;;;;;;;54.70;35.33;;;8.40;99.90;;;;;;5035622;28;20091;-70
2022/03/15 03:26:23;;;;;;;47.90;32.17;;;8.30;99.90;;;;;;5053237;28;20037;-72
2022/03/15 03:28:49;;;;;;;45.97;32.92;;;8.30;99.90;;;;;;5053317;28;20076;-72
2022/03/15 03:31:16;;;;;;;45.35;31.55;;;8.30;99.90;;;;;;5053448;28;20064;-72
2022/03/15 03:33:43;;;;;;;45.92;30.83;;;8.30;99.90;;;;;;5053299;28;20049;-72
2022/03/15 03:36:09;;;;;;;44.28;30.67;;;8.40;99.90;;;;;;5053207;28;20048;-72
2022/03/15 03:38:36;;;;;;;47.50;32.42;;;8.30;99.90;;;;;;5053208;28;20049;-72
2022/03/15 03:41:03;;;;;;;49.03;29.73;;;8.30;99.90;;;;;;5053326;28;20033;-72
2022/03/15 03:43:29;;;;;;;49.60;30.67;;;8.30;99.90;;;;;;5053083;28;20045;-71
2022/03/15 03:45:56;;;;;;;48.53;31.35;;;8.30;99.90;;;;;;5053086;28;20053;-72
2022/03/15 03:48:23;;;;;;;49.17;31.45;;;8.30;99.90;;;;;;5042766;28;20045;-72
2022/03/15 03:50:50;;;;;;;43.17;29.90;;;8.30;99.90;;;;;;5019857;28;20133;-72
2022/03/15 03:53:17;;;;;;;45.92;29.63;;;8.30;99.90;;;;;;5012761;28;20101;-73
2022/03/15 03:55:44;;;;;;;47.58;32.55;;;8.30;99.90;;;;;;5013293;28;20065;-70
2022/03/15 03:58:11;;;;;;;46.83;31.48;;;8.30;99.90;;;;;;5013274;28;20045;-72
2022/03/15 04:00:37;;;;;;;47.40;29.00;;;8.30;99.90;;;;;;5013189;28;20089;-72
2022/03/15 04:03:03;;;;;;;43.97;28.77;;;8.40;99.90;;;;;;5013196;28;20034;-72
2022/03/15 04:05:36;;;;;;;35.97;26.90;;;8.40;99.90;;;;;;5013198;28;20255;-72
2022/03/15 04:08:02;;;;;;;46.67;30.52;;;8.40;99.90;;;;;;5012978;28;20487;-72
2022/03/15 04:10:30;;;;;;;39.28;27.83;;;8.40;99.90;;;;;;5012898;28;20041;-73
2022/03/15 04:12:56;;;;;;;40.63;26.13;;;8.40;99.90;;;;;;5012860;28;20397;-73
2022/03/15 04:15:24;;;;;;;33.92;24.65;;;8.40;99.90;;;;;;5013183;28;20053;-71
2022/03/15 04:17:51;;;;;;;38.60;24.80;;;8.40;99.90;;;;;;5013222;28;20037;-73
2022/03/15 04:20:17;;;;;;;36.97;25.05;;;8.40;99.90;;;;;;5012652;28;20042;-73
2022/03/15 04:22:44;;;;;;;33.67;23.65;;;8.50;99.90;;;;;;5013238;28;20033;-72
2022/03/15 04:25:10;;;;;;;26.58;19.48;;;8.40;99.90;;;;;;5016138;28;20053;-72
2022/03/15 04:27:36;;;;;;;33.53;20.40;;;8.50;99.90;;;;;;5017337;28;20382;-72
2022/03/15 04:30:05;;;;;;;30.17;18.42;;;8.50;99.90;;;;;;5017412;28;20125;-73
2022/03/15 04:32:31;;;;;;;31.10;18.33;;;8.50;99.90;;;;;;5017185;28;20046;-72
2022/03/15 04:34:57;;;;;;;28.85;19.13;;;8.40;99.90;;;;;;5016848;28;20045;-72
2022/03/15 04:37:23;;;;;;;24.70;16.45;;;8.50;99.90;;;;;;5016862;28;20045;-72
2022/03/15 04:39:50;;;;;;;23.02;17.40;;;8.50;99.90;;;;;;5016881;28;20363;-73
2022/03/15 04:42:16;;;;;;;27.50;17.45;;;8.50;99.90;;;;;;5017012;28;20046;-71
2022/03/15 04:44:42;;;;;;;24.20;18.27;;;8.40;99.90;;;;;;5016886;28;20498;-73
2022/03/15 04:47:07;;;;;;;24.08;16.08;;;8.50;99.90;;;;;;5017023;28;20049;-73
2022/03/15 04:49:34;;;;;;;24.75;15.95;;;8.40;99.90;;;;;;5030869;28;20518;-72
2022/03/15 04:52:02;;;;;;;26.48;16.13;;;8.50;99.90;;;;;;5036503;28;20041;-73
2022/03/15 04:54:29;;;;;;;22.73;14.43;;;8.40;99.90;;;;;;5018354;28;20037;-73
2022/03/15 04:56:55;;;;;;;22.98;14.02;;;8.50;99.90;;;;;;5038955;28;20128;-72
2022/03/15 04:59:21;;;;;;;20.35;13.32;;;8.40;99.90;;;;;;5036301;28;20120;-73
2022/03/15 05:01:47;;;;;;;21.20;12.77;;;8.50;99.90;;;;;;5036382;28;20492;-69
2022/03/15 05:04:12;;;;;;;20.67;11.15;;;8.50;99.90;;;;;;5036458;28;20128;-70
2022/03/15 05:06:39;;;;;;;18.08;11.23;;;8.50;99.90;;;;;;5036283;28;20041;-70
2022/03/15 05:09:05;;;;;;;15.85;10.18;;;8.60;99.90;;;;;;5036013;28;20366;-73
2022/03/15 05:11:31;;;;;;;14.38;8.98;;;8.60;99.90;;;;;;5036119;28;20396;-73
2022/03/15 05:13:57;;;;;;;13.60;8.98;;;8.60;99.90;;;;;;5035736;28;20049;-72
2022/03/15 05:16:23;;;;;;;14.48;9.20;;;8.60;99.90;;;;;;5035854;28;20413;-73
2022/03/15 05:18:53;;;;;;;12.00;8.38;;;8.60;99.90;;;;;;5035863;28;20084;-73
2022/03/15 05:21:20;;;;;;;15.87;8.60;;;8.60;99.90;;;;;;5036083;28;20041;-72
2022/03/15 05:23:47;;;;;;;12.85;8.82;;;8.60;99.90;;;;;;5035971;28;20038;-73
2022/03/15 05:26:15;;;;;;;18.02;9.20;;;8.60;99.90;;;;;;5035918;28;20107;-70
2022/03/15 05:28:41;;;;;;;14.32;8.55;;;8.60;99.90;;;;;;5035942;28;20030;-72
2022/03/15 05:31:07;;;;;;;12.45;9.00;;;8.60;99.90;;;;;;5035907;28;20587;-73
2022/03/15 05:33:33;;;;;;;14.10;8.90;;;8.60;99.90;;;;;;5035704;28;20029;-72
2022/03/15 05:35:59;;;;;;;13.40;9.15;;;8.60;99.90;;;;;;5035296;28;20057;-72
2022/03/15 05:38:25;;;;;;;18.65;9.13;;;8.60;99.90;;;;;;5035476;28;20033;-73
2022/03/15 05:40:51;;;;;;;17.60;10.07;;;8.60;99.90;;;;;;5035617;28;20107;-73
2022/03/15 05:43:19;;;;;;;12.93;9.07;;;8.60;99.90;;;;;;5035556;28;20033;-71
2022/03/15 05:45:45;;;;;;;15.00;8.45;;;8.60;99.90;;;;;;5035644;28;20049;-72
2022/03/15 05:48:11;;;;;;;15.50;8.52;;;8.70;99.90;;;;;;5036965;28;20931;-73
2022/03/15 05:50:37;;;;;;;23.05;9.23;;;8.70;99.90;;;;;;5055241;28;20045;-72
2022/03/15 05:53:04;;;;;;;14.18;8.70;;;8.70;99.90;;;;;;5055398;28;20500;-70
2022/03/15 05:55:34;;;;;;;10.90;7.72;;;8.70;99.90;;;;;;5055016;28;20052;-73
2022/03/15 05:58:00;;;;;;;16.80;8.87;;;8.70;99.90;;;;;;5055028;28;20041;-73
2022/03/15 06:00:28;;;;;;;12.80;7.75;;;8.70;99.90;;;;;;5054867;28;20045;-73
2022/03/15 06:02:53;;;;;;;13.63;8.40;;;8.80;99.90;;;;;;5054965;28;20055;-72
2022/03/15 06:05:19;;;;;;;13.15;8.05;;;8.70;99.90;;;;;;5055225;28;20492;-69
2022/03/15 06:07:47;;;;;;;11.68;7.05;;;8.70;99.90;;;;;;5050210;28;20210;-73
2022/03/15 06:10:15;;;;;;;11.77;7.90;;;8.70;99.90;;;;;;5034939;28;20504;-73
2022/03/15 06:12:42;;;;;;;13.63;7.22;;;8.70;99.90;;;;;;5034946;28;20064;-73
2022/03/15 06:15:08;;;;;;;13.30;7.00;;;8.70;99.90;;;;;;5034875;28;20049;-73
2022/03/15 06:18:07;;;;;;;11.38;6.95;;;8.80;99.90;;;;;;5034858;28;20449;-73
2022/03/15 06:20:33;;;;;;;15.68;8.13;;;8.80;99.90;;;;;;5012037;28;20516;-70
2022/03/15 06:23:00;;;;;;;25.05;11.40;;;8.90;99.90;;;;;;5034854;28;20071;-73
2022/03/15 06:25:26;;;;;;;12.82;7.32;;;9.10;99.90;;;;;;5034644;28;20044;-74
2022/03/15 06:27:52;;;;;;;22.85;9.45;;;9.10;99.90;;;;;;5034786;28;20041;-70
2022/03/15 06:30:20;;;;;;;49.92;21.52;;;9.20;99.90;;;;;;5033362;28;20041;-77
2022/03/15 06:32:46;;;;;;;27.65;11.85;;;9.20;99.90;;;;;;5033181;28;20044;-69
2022/03/15 06:35:13;;;;;;;25.80;12.57;;;9.10;99.90;;;;;;5034586;28;20088;-79
2022/03/15 06:37:45;;;;;;;31.20;13.80;;;9.30;99.90;;;;;;5033834;28;20196;-76
2022/03/15 06:40:14;;;;;;;22.20;9.05;;;9.20;99.90;;;;;;5034622;28;20040;-77
2022/03/15 06:42:40;;;;;;;23.90;9.68;;;9.30;99.90;;;;;;5034462;28;20144;-69
2022/03/15 06:45:07;;;;;;;42.22;17.02;;;9.30;99.90;;;;;;5034116;28;20124;-73
2022/03/15 06:47:34;;;;;;;47.28;20.65;;;9.40;99.90;;;;;;5033465;28;20037;-74
2022/03/15 06:50:01;;;;;;;17.00;9.48;;;9.40;99.90;;;;;;5034161;28;20049;-72
2022/03/15 06:52:27;;;;;;;8.77;6.05;;;9.30;99.90;;;;;;5048856;28;20036;-74
2022/03/15 06:54:55;;;;;;;9.10;6.13;;;9.30;99.90;;;;;;5053579;28;20033;-71
2022/03/15 06:57:21;;;;;;;19.13;8.57;;;9.20;99.90;;;;;;5036243;28;20048;-74
2022/03/15 06:59:47;;;;;;;10.20;6.78;;;9.30;99.90;;;;;;5053818;28;20369;-73
2022/03/15 07:02:13;;;;;;;14.70;8.35;;;9.30;99.90;;;;;;5053791;28;20122;-75
2022/03/15 07:04:40;;;;;;;22.27;11.05;;;9.30;99.90;;;;;;5047258;28;20041;-69
2022/03/15 07:07:06;;;;;;;21.85;11.48;;;9.30;99.90;;;;;;5033702;28;20029;-69
2022/03/15 07:09:32;;;;;;;17.17;8.73;;;9.30;99.90;;;;;;5033676;28;20439;-74
2022/03/15 07:11:58;;;;;;;34.80;17.05;;;9.40;99.90;;;;;;5033535;28;20116;-71
2022/03/15 07:14:24;;;;;;;46.42;22.90;;;9.50;99.90;;;;;;5034984;28;20396;-71
2022/03/15 07:16:51;;;;;;;33.80;17.52;;;9.50;99.90;;;;;;5033616;28;20095;-74
2022/03/15 07:19:17;;;;;;;23.95;12.00;;;9.50;99.90;;;;;;5032805;28;20392;-69
2022/03/15 07:21:43;;;;;;;11.77;5.07;;;9.40;99.90;;;;;;5032950;28;20045;-69
2022/03/15 07:24:08;;;;;;;15.38;8.20;;;9.50;99.90;;;;;;5032136;28;20056;-74
2022/03/15 07:26:35;;;;;;;26.65;13.65;;;9.60;99.90;;;;;;5033821;28;20092;-76
2022/03/15 07:29:01;;;;;;;34.08;16.90;;;9.60;99.90;;;;;;5033677;28;20540;-77
2022/03/15 07:31:27;;;;;;;56.67;27.20;;;9.60;99.90;;;;;;5033879;28;20033;-70
2022/03/15 07:33:53;;;;;;;37.20;19.35;;;9.60;99.90;;;;;;5033537;28;20041;-74
2022/03/15 07:36:19;;;;;;;40.53;20.48;;;9.50;99.90;;;;;;5033633;28;20045;-79
2022/03/15 07:38:45;;;;;;;27.20;17.90;;;9.50;99.90;;;;;;5033798;28;20150;-81
2022/03/15 07:41:11;;;;;;;26.33;16.58;;;9.50;99.90;;;;;;5033751;28;20413;-78
2022/03/15 07:43:37;;;;;;;15.48;11.23;;;9.50;99.90;;;;;;5033466;28;20079;-73
2022/03/15 07:46:03;;;;;;;9.48;7.10;;;9.50;99.90;;;;;;5033645;28;20045;-77
2022/03/15 07:48:29;;;;;;;8.40;5.35;;;9.50;99.90;;;;;;5038529;28;20044;-75
2022/03/15 07:50:55;;;;;;;5.50;3.83;;;9.50;99.90;;;;;;5042586;28;20131;-75
2022/03/15 07:53:21;;;;;;;7.18;3.83;;;9.60;99.90;;;;;;5033156;28;20046;-78
2022/03/15 07:55:46;;;;;;;5.18;3.35;;;9.60;99.90;;;;;;5033227;28;20562;-79
2022/03/15 07:58:12;;;;;;;5.10;3.65;;;9.60;99.90;;;;;;5032714;28;20040;-72
2022/03/15 08:00:38;;;;;;;4.95;3.50;;;;;;;;;;5033097;28;20128;-71
2022/03/15 08:03:04;;;;;;;7.70;3.53;;;9.70;99.90;;;;;;5033107;28;20041;-75
2022/03/15 08:05:30;;;;;;;6.30;2.72;;;9.90;99.90;;;;;;5031319;28;20095;-71
2022/03/15 08:07:56;;;;;;;6.22;3.08;;;9.90;99.90;;;;;;5030614;28;20032;-75
2022/03/15 08:10:22;;;;;;;8.23;3.67;;;9.90;99.90;;;;;;5032361;28;20516;-76
2022/03/15 08:12:48;;;;;;;6.35;3.20;;;10.00;99.90;;;;;;5033185;28;20046;-71
2022/03/15 08:15:14;;;;;;;5.63;3.70;;;10.10;99.90;;;;;;5032845;28;20079;-69
2022/03/15 08:17:41;;;;;;;8.45;3.72;;;10.00;99.90;;;;;;5032883;28;20045;-76
2022/03/15 08:20:13;;;;;;;5.90;4.20;;;10.00;99.90;;;;;;5032919;28;20040;-71
2022/03/15 08:22:39;;;;;;;6.70;3.45;;;10.00;99.90;;;;;;5032852;28;20037;-71
2022/03/15 08:25:05;;;;;;;5.80;4.00;;;10.00;99.90;;;;;;5031902;28;20489;-76
2022/03/15 08:27:32;;;;;;;7.57;4.60;;;10.00;99.90;;;;;;5032146;28;20037;-77
2022/03/15 08:29:58;;;;;;;11.57;6.43;;;10.20;99.90;;;;;;5032509;28;20033;-77
2022/03/15 08:32:24;;;;;;;10.27;4.97;;;10.10;99.90;;;;;;5033131;28;20120;-74
2022/03/15 08:34:49;;;;;;;10.27;5.28;;;10.00;99.90;;;;;;5032865;28;20463;-75
2022/03/15 08:37:16;;;;;;;11.95;5.28;;;10.10;99.90;;;;;;5032787;28;20041;-79
2022/03/15 08:39:42;;;;;;;19.60;7.47;;;10.10;99.90;;;;;;5032829;28;20041;-77
2022/03/15 08:42:08;;;;;;;31.38;10.93;;;10.20;99.90;;;;;;5031560;28;20030;-75
2022/03/15 08:44:34;;;;;;;16.83;6.85;;;10.30;99.90;;;;;;5034552;28;20045;-77
2022/03/15 08:46:59;;;;;;;15.13;6.15;;;10.30;99.90;;;;;;5032231;28;20075;-78
2022/03/15 08:49:25;;;;;;;8.63;4.00;;;10.30;99.90;;;;;;5032630;28;20033;-77
2022/03/15 08:51:51;;;;;;;6.43;2.90;;;;;;;;;;5031994;28;20103;-70
2022/03/15 08:54:22;;;;;;;7.85;2.42;;;10.50;99.90;;;;;;5032698;28;20423;-76
2022/03/15 08:56:48;;;;;;;9.68;4.93;;;10.40;99.90;;;;;;5032664;28;20045;-75
2022/03/15 08:59:15;;;;;;;4.57;2.70;;;10.70;99.90;;;;;;5032658;28;20033;-74
2022/03/15 09:01:42;;;;;;;8.70;4.35;;;10.80;99.90;;;;;;5032881;28;20509;-75
2022/03/15 09:04:08;;;;;;;16.95;6.68;;;10.70;99.90;;;;;;5032508;28;20522;-74
2022/03/15 09:06:34;;;;;;;29.90;11.65;;;10.70;99.90;;;;;;5032827;28;20041;-75
2022/03/15 09:09:00;;;;;;;8.73;2.40;;;;;;;;;;5034923;28;20526;-73
2022/03/15 09:11:27;;;;;;;8.07;3.47;;;;;;;;;;5035757;28;20037;-76
2022/03/15 09:13:54;;;;;;;4.30;3.03;;;;;;;;;;5036231;28;20046;-75
2022/03/15 09:16:20;;;;;;;39.50;15.05;;;;;;;;;;5036201;28;20053;-75
2022/03/15 09:18:46;;;;;;;17.25;5.60;;;;;;;;;;5036107;28;20520;-72
2022/03/15 09:21:12;;;;;;;6.10;2.30;;;;;;;;;;5036145;28;20052;-73
2022/03/15 09:23:39;;;;;;;5.85;2.47;;;11.20;99.90;;;;;;5035640;28;20111;-74
2022/03/15 09:26:05;;;;;;;3.65;2.60;;;11.30;99.90;;;;;;5036116;28;20850;-75
2022/03/15 09:28:33;;;;;;;6.82;3.15;;;11.20;99.90;;;;;;5035868;28;20444;-71
2022/03/15 09:31:00;;;;;;;5.93;2.88;;;11.30;99.90;;;;;;5035777;28;20043;-75
2022/03/15 09:33:26;;;;;;;12.45;5.70;;;11.20;99.90;;;;;;5035507;28;20041;-72
2022/03/15 09:35:52;;;;;;;7.47;3.05;;;11.30;99.90;;;;;;5035110;28;20059;-71
2022/03/15 09:38:20;;;;;;;20.20;8.68;;;11.30;99.90;;;;;;5034128;28;20040;-73
2022/03/15 09:40:52;;;;;;;9.05;3.60;;;11.30;99.90;;;;;;5035260;28;20508;-74
2022/03/15 09:43:23;;;;;;;14.68;5.75;;;11.30;99.90;;;;;;5035756;28;20548;-74
2022/03/15 09:45:53;;;;;;;23.75;9.65;;;11.30;99.90;;;;;;5035751;28;20045;-74
2022/03/15 09:48:22;;;;;;;36.30;14.10;;;11.30;99.90;;;;;;5038956;28;20033;-75
2022/03/15 09:50:50;;;;;;;47.67;19.58;;;11.40;99.90;;;;;;5055213;28;20067;-75
2022/03/15 09:53:17;;;;;;;12.77;6.07;;;11.40;99.90;;;;;;5055612;28;20098;-76
2022/03/15 09:55:45;;;;;;;38.97;14.05;;;11.50;99.90;;;;;;5055192;28;20059;-74
2022/03/15 09:58:29;;;;;;;35.30;14.80;;;11.50;99.90;;;;;;5055167;28;20033;-74
2022/03/15 10:00:57;;;;;;;13.75;5.40;;;11.60;99.90;;;;;;5055253;28;20558;-70
2022/03/15 10:03:23;;;;;;;8.70;2.90;;;;;;;;;;5055253;28;20044;-82
2022/03/15 10:05:50;;;;;;;15.38;5.32;;;11.80;99.90;;;;;;5055314;28;20044;-76
2022/03/15 10:08:17;;;;;;;23.35;10.13;;;11.80;99.90;;;;;;5055440;28;20039;-78
2022/03/15 10:10:47;;;;;;;6.88;3.10;;;11.80;99.90;;;;;;5055097;28;20059;-70
2022/03/15 10:13:13;;;;;;;14.88;5.57;;;12.00;99.90;;;;;;5055241;28;20142;-74
2022/03/15 10:15:55;;;;;;;9.23;3.20;;;12.00;99.90;;;;;;5055059;28;20506;-74
2022/03/15 10:18:21;;;;;;;20.77;8.32;;;12.10;99.90;;;;;;5054995;28;20059;-75
2022/03/15 10:20:48;;;;;;;19.63;7.55;;;12.10;99.90;;;;;;5054942;28;20049;-73
2022/03/15 10:23:16;;;;;;;20.67;7.40;;;12.10;99.90;;;;;;5054092;28;20029;-75
2022/03/15 10:25:46;;;;;;;13.68;5.95;;;12.10;99.90;;;;;;5055175;28;20045;-76
2022/03/15 10:28:13;;;;;;;28.02;10.55;;;12.10;99.90;;;;;;5054777;28;20048;-74
2022/03/15 10:30:40;;;;;;;34.33;14.25;;;12.10;99.90;;;;;;5054858;28;20033;-77
2022/03/15 10:33:06;;;;;;;15.48;6.78;;;12.20;99.90;;;;;;5054756;28;20129;-75
2022/03/15 10:35:38;;;;;;;23.35;14.00;;;12.20;99.90;;;;;;5054567;28;20686;-73
2022/03/15 10:38:06;;;;;;;29.23;15.73;;;12.20;99.90;;;;;;5054659;28;20086;-75
2022/03/15 10:40:44;;;;;;;23.45;13.95;;;12.30;99.90;;;;;;5036810;28;20041;-76
2022/03/15 10:43:25;;;;;;;7.95;3.92;;;12.30;99.90;;;;;;5054607;28;20068;-73
2022/03/15 10:45:57;;;;;;;7.22;4.00;;;12.30;99.90;;;;;;5054634;28;20044;-75
2022/03/15 10:48:24;;;;;;;9.93;3.58;;;12.30;99.90;;;;;;5054388;28;20080;-74
2022/03/15 10:50:56;;;;;;;7.80;3.33;;;12.30;99.90;;;;;;5054348;28;20033;-74
2022/03/15 10:53:29;;;;;;;10.02;3.97;;;12.40;99.90;;;;;;5054383;28;20048;-74
2022/03/15 10:56:22;;;;;;;10.15;3.45;;;12.50;99.90;;;;;;5054372;28;20049;-75
2022/03/15 10:58:59;;;;;;;8.13;3.05;;;12.50;99.90;;;;;;5043850;28;20091;-76
2022/03/15 11:01:26;;;;;;;8.05;3.03;;;12.60;99.90;;;;;;5037434;28;20044;-73
2022/03/15 11:04:01;;;;;;;6.57;3.10;;;12.70;99.90;;;;;;5053930;28;20080;-74
2022/03/15 11:06:35;;;;;;;9.32;2.80;;;12.70;99.90;;;;;;5053811;28;20132;-72
2022/03/15 11:09:13;;;;;;;10.30;3.10;;;12.80;99.90;;;;;;5054130;28;20131;-74
2022/03/15 11:11:41;;;;;;;7.90;2.60;;;12.80;99.90;;;;;;5054000;28;20132;-74
2022/03/15 11:14:08;;;;;;;14.38;3.30;;;12.90;99.90;;;;;;5054101;28;20353;-75
2022/03/15 11:16:37;;;;;;;8.63;2.60;;;12.90;99.90;;;;;;5053980;28;20052;-69
2022/03/15 11:19:04;;;;;;;5.70;2.97;;;12.90;99.90;;;;;;5054080;28;20043;-70
2022/03/15 11:21:33;;;;;;;8.88;2.78;;;13.00;99.90;;;;;;5053861;28;20040;-70
2022/03/15 11:24:00;;;;;;;5.93;2.63;;;13.00;99.90;;;;;;5053776;28;20083;-74
2022/03/15 11:26:31;;;;;;;7.20;2.53;;;13.10;99.90;;;;;;5051791;28;20063;-75
2022/03/15 11:28:58;;;;;;;16.20;3.40;;;13.10;99.90;;;;;;5040260;28;20045;-75
2022/03/15 11:31:24;;;;;;;4.43;2.58;;;13.20;99.90;;;;;;5033760;28;20061;-76
2022/03/15 11:33:51;;;;;;;7.43;2.70;;;13.30;99.90;;;;;;5033540;28;20065;-76
2022/03/15 11:36:19;;;;;;;11.35;3.65;;;13.30;99.90;;;;;;5040827;28;20052;-75
2022/03/15 11:38:45;;;;;;;7.57;3.00;;;13.40;99.90;;;;;;5047841;28;20041;-79
2022/03/15 11:41:11;;;;;;;8.38;3.35;;;;;;;;;;5033873;28;20041;-71
2022/03/15 11:43:50;;;;;;;11.80;3.42;;;13.60;99.90;;;;;;5015909;28;20452;-70
2022/03/15 11:46:35;;;;;;;7.13;2.90;;;13.70;99.90;;;;;;5011653;28;20050;-72
2022/03/15 11:49:04;;;;;;;6.82;2.03;;;13.80;99.90;;;;;;5035515;28;20063;-74
2022/03/15 11:51:34;;;;;;;10.27;2.95;;;14.00;99.90;;;;;;5030912;28;20041;-75
2022/03/15 11:54:33;;;;;;;5.20;2.42;;;14.00;99.90;;;;;;5031085;28;20523;-71
2022/03/15 11:57:21;;;;;;;7.93;2.53;;;14.20;99.90;;;;;;5030564;28;20524;-70
2022/03/15 11:59:51;;;;;;;9.18;2.22;;;14.20;99.90;;;;;;5031381;28;20063;-74
2022/03/15 12:02:40;;;;;;;10.35;3.20;;;14.30;99.90;;;;;;5033088;28;20038;-74
2022/03/15 12:05:20;;;;;;;6.80;2.30;;;14.30;99.90;;;;;;5032199;28;20046;-70
2022/03/15 12:08:15;;;;;;;18.85;3.58;;;14.30;99.90;;;;;;5032769;28;20056;-74
2022/03/15 12:11:05;;;;;;;8.80;2.30;;;14.30;99.90;;;;;;5030971;28;20041;-74
2022/03/15 12:13:43;;;;;;;7.93;2.95;;;14.30;99.90;;;;;;5020254;28;20409;-75
2022/03/15 12:16:27;;;;;;;6.40;2.60;;;14.30;99.90;;;;;;5030264;28;20089;-74
2022/03/15 12:19:10;;;;;;;5.05;2.05;;;14.40;99.90;;;;;;5030888;28;20045;-73
2022/03/15 12:21:55;;;;;;;4.68;2.45;;;14.40;99.90;;;;;;5032292;28;20045;-75
2022/03/15 12:24:31;;;;;;;8.85;3.03;;;14.40;99.90;;;;;;5030703;28;20038;-74
2022/03/15 12:27:18;;;;;;;5.75;2.20;;;14.50;99.90;;;;;;5030992;28;20051;-73
2022/03/15 12:29:56;;;;;;;15.90;8.43;;;14.60;99.90;;;;;;5032604;28;20119;-73
2022/03/15 12:32:22;;;;;;;11.88;5.22;;;14.60;99.90;;;;;;5032517;28;20044;-74
2022/03/15 12:34:55;;;;;;;15.27;9.55;;;14.60;99.90;;;;;;5012937;28;20080;-75
2022/03/15 12:37:36;;;;;;;13.75;4.38;;;14.70;99.90;;;;;;5030400;28;20432;-75
2022/03/15 12:40:06;;;;;;;5.40;2.45;;;14.70;99.90;;;;;;5030792;28;20060;-74
2022/03/15 12:42:33;;;;;;;5.30;3.35;;;14.80;99.90;;;;;;5030434;28;20030;-74
2022/03/15 12:45:10;;;;;;;8.77;4.80;;;14.80;99.90;;;;;;5031469;28;20038;-75
2022/03/15 12:47:41;;;;;;;5.63;2.92;;;14.70;99.90;;;;;;5033707;28;20120;-74